sensor_id;sensor_type;location;lat;lon;timestamp;P1;durP1;ratioP1;P2;durP2;ratioP2
5912;SDS011;2982;42.684;23.356;2023-08-24T00:01:35;11.45;;;10.45;;
5912;SDS011;2982;42.684;23.356;2023-08-24T00:04:00;13.27;;;10.30;;
5912;SDS011;2982;42.684;23.356;2023-08-24T00:06:25;12.48;;;11.38;;
5912;SDS011;2982;42.684;23.356;2023-08-24T00:08:50;11.77;;;10.70;;
5912;SDS011;2982;42.684;23.356;2023-08-24T00:11:16;10.90;;;10.10;;
5912;SDS011;2982;42.684;23.356;2023-08-24T00:13:41;11.73;;;10.65;;
5912;SDS011;2982;42.684;23.356;2023-08-24T00:16:07;12.05;;;11.10;;
5912;SDS011;2982;42.684;23.356;2023-08-24T00:18:33;11.25;;;10.30;;
5912;SDS011;2982;42.684;23.356;2023-08-24T00:20:58;11.95;;;11.07;;
5912;SDS011;2982;42.684;23.356;2023-08-24T00:23:24;12.30;;;11.10;;
5912;SDS011;2982;42.684;23.356;2023-08-24T00:25:50;11.43;;;10.52;;
5912;SDS011;2982;42.684;23.356;2023-08-24T00:28:15;12.48;;;11.35;;
5912;SDS011;2982;42.684;23.356;2023-08-24T00:30:41;11.52;;;10.65;;
5912;SDS011;2982;42.684;23.356;2023-08-24T00:33:08;13.20;;;10.88;;
5912;SDS011;2982;42.684;23.356;2023-08-24T00:35:34;14.07;;;10.45;;
5912;SDS011;2982;42.684;23.356;2023-08-24T00:37:59;12.18;;;11.27;;
5912;SDS011;2982;42.684;23.356;2023-08-24T00:40:24;12.73;;;11.70;;
5912;SDS011;2982;42.684;23.356;2023-08-24T00:42:50;11.90;;;10.88;;
5912;SDS011;2982;42.684;23.356;2023-08-24T00:45:18;11.95;;;10.85;;
5912;SDS011;2982;42.684;23.356;2023-08-24T00:47:44;13.13;;;11.70;;
5912;SDS011;2982;42.684;23.356;2023-08-24T00:50:11;12.10;;;11.15;;
5912;SDS011;2982;42.684;23.356;2023-08-24T00:52:38;13.10;;;12.00;;
5912;SDS011;2982;42.684;23.356;2023-08-24T00:55:05;15.65;;;11.18;;
5912;SDS011;2982;42.684;23.356;2023-08-24T00:57:31;12.35;;;11.25;;
5912;SDS011;2982;42.684;23.356;2023-08-24T00:59:58;12.52;;;11.55;;
5912;SDS011;2982;42.684;23.356;2023-08-24T01:02:26;12.85;;;11.65;;
5912;SDS011;2982;42.684;23.356;2023-08-24T01:04:52;13.70;;;12.07;;
5912;SDS011;2982;42.684;23.356;2023-08-24T01:07:18;13.18;;;11.95;;
5912;SDS011;2982;42.684;23.356;2023-08-24T01:09:43;13.23;;;11.88;;
5912;SDS011;2982;42.684;23.356;2023-08-24T01:14:41;16.10;;;12.13;;
5912;SDS011;2982;42.684;23.356;2023-08-24T01:17:15;16.88;;;12.48;;
5912;SDS011;2982;42.684;23.356;2023-08-24T01:19:47;12.77;;;11.88;;
5912;SDS011;2982;42.684;23.356;2023-08-24T01:25:21;13.90;;;11.77;;
5912;SDS011;2982;42.684;23.356;2023-08-24T01:27:56;14.02;;;12.85;;
5912;SDS011;2982;42.684;23.356;2023-08-24T01:30:23;14.65;;;13.30;;
5912;SDS011;2982;42.684;23.356;2023-08-24T01:32:49;14.70;;;13.23;;
5912;SDS011;2982;42.684;23.356;2023-08-24T01:35:14;13.13;;;11.93;;
5912;SDS011;2982;42.684;23.356;2023-08-24T01:37:39;19.10;;;12.75;;
5912;SDS011;2982;42.684;23.356;2023-08-24T01:40:06;12.98;;;11.85;;
5912;SDS011;2982;42.684;23.356;2023-08-24T01:42:35;13.38;;;12.10;;
5912;SDS011;2982;42.684;23.356;2023-08-24T01:45:07;13.98;;;12.65;;
5912;SDS011;2982;42.684;23.356;2023-08-24T01:47:34;13.07;;;11.95;;
5912;SDS011;2982;42.684;23.356;2023-08-24T01:50:01;14.52;;;13.05;;
5912;SDS011;2982;42.684;23.356;2023-08-24T01:52:26;15.35;;;12.18;;
5912;SDS011;2982;42.684;23.356;2023-08-24T01:54:52;13.50;;;12.20;;
5912;SDS011;2982;42.684;23.356;2023-08-24T01:57:18;13.43;;;12.05;;
5912;SDS011;2982;42.684;23.356;2023-08-24T01:59:43;14.05;;;12.43;;
5912;SDS011;2982;42.684;23.356;2023-08-24T02:02:08;13.02;;;12.05;;
5912;SDS011;2982;42.684;23.356;2023-08-24T02:04:34;12.68;;;11.40;;
5912;SDS011;2982;42.684;23.356;2023-08-24T02:06:59;14.35;;;11.68;;
5912;SDS011;2982;42.684;23.356;2023-08-24T02:09:24;12.65;;;11.48;;
5912;SDS011;2982;42.684;23.356;2023-08-24T02:11:49;12.90;;;11.35;;
5912;SDS011;2982;42.684;23.356;2023-08-24T02:14:15;12.38;;;11.07;;
5912;SDS011;2982;42.684;23.356;2023-08-24T02:16:40;14.35;;;12.90;;
5912;SDS011;2982;42.684;23.356;2023-08-24T02:19:05;14.60;;;12.25;;
5912;SDS011;2982;42.684;23.356;2023-08-24T02:21:30;18.77;;;12.25;;
5912;SDS011;2982;42.684;23.356;2023-08-24T02:23:56;12.23;;;11.23;;
5912;SDS011;2982;42.684;23.356;2023-08-24T02:26:21;12.68;;;11.57;;
5912;SDS011;2982;42.684;23.356;2023-08-24T02:28:46;13.98;;;12.73;;
5912;SDS011;2982;42.684;23.356;2023-08-24T02:31:12;14.27;;;12.70;;
5912;SDS011;2982;42.684;23.356;2023-08-24T02:33:37;13.68;;;12.48;;
5912;SDS011;2982;42.684;23.356;2023-08-24T02:36:02;15.20;;;12.07;;
5912;SDS011;2982;42.684;23.356;2023-08-24T02:38:28;13.73;;;12.43;;
5912;SDS011;2982;42.684;23.356;2023-08-24T02:41:00;13.52;;;12.45;;
5912;SDS011;2982;42.684;23.356;2023-08-24T02:43:26;12.75;;;11.55;;
5912;SDS011;2982;42.684;23.356;2023-08-24T02:45:53;13.60;;;12.30;;
5912;SDS011;2982;42.684;23.356;2023-08-24T02:48:18;13.80;;;12.60;;
5912;SDS011;2982;42.684;23.356;2023-08-24T02:50:45;17.95;;;12.32;;
5912;SDS011;2982;42.684;23.356;2023-08-24T02:53:11;14.73;;;12.63;;
5912;SDS011;2982;42.684;23.356;2023-08-24T02:55:36;13.60;;;12.23;;
5912;SDS011;2982;42.684;23.356;2023-08-24T02:58:01;12.23;;;11.32;;
5912;SDS011;2982;42.684;23.356;2023-08-24T03:00:26;12.40;;;11.45;;
5912;SDS011;2982;42.684;23.356;2023-08-24T03:02:52;14.13;;;12.80;;
5912;SDS011;2982;42.684;23.356;2023-08-24T03:05:17;14.23;;;12.90;;
5912;SDS011;2982;42.684;23.356;2023-08-24T03:07:42;14.55;;;12.90;;
5912;SDS011;2982;42.684;23.356;2023-08-24T03:10:08;13.80;;;12.23;;
5912;SDS011;2982;42.684;23.356;2023-08-24T03:12:33;14.02;;;12.75;;
5912;SDS011;2982;42.684;23.356;2023-08-24T03:14:58;13.68;;;12.05;;
5912;SDS011;2982;42.684;23.356;2023-08-24T03:17:24;14.10;;;12.57;;
5912;SDS011;2982;42.684;23.356;2023-08-24T03:19:49;13.85;;;12.25;;
5912;SDS011;2982;42.684;23.356;2023-08-24T03:22:14;14.20;;;12.98;;
5912;SDS011;2982;42.684;23.356;2023-08-24T03:24:39;13.73;;;12.27;;
5912;SDS011;2982;42.684;23.356;2023-08-24T03:27:05;13.25;;;12.05;;
5912;SDS011;2982;42.684;23.356;2023-08-24T03:29:30;14.23;;;12.75;;
5912;SDS011;2982;42.684;23.356;2023-08-24T03:31:55;13.45;;;11.98;;
5912;SDS011;2982;42.684;23.356;2023-08-24T03:34:21;13.50;;;12.35;;
5912;SDS011;2982;42.684;23.356;2023-08-24T03:36:46;14.20;;;12.80;;
5912;SDS011;2982;42.684;23.356;2023-08-24T03:39:12;13.52;;;11.90;;
5912;SDS011;2982;42.684;23.356;2023-08-24T03:41:37;13.10;;;11.80;;
5912;SDS011;2982;42.684;23.356;2023-08-24T03:44:02;14.88;;;13.38;;
5912;SDS011;2982;42.684;23.356;2023-08-24T03:46:28;15.40;;;12.93;;
5912;SDS011;2982;42.684;23.356;2023-08-24T03:48:53;13.82;;;12.60;;
5912;SDS011;2982;42.684;23.356;2023-08-24T03:51:18;16.80;;;13.65;;
5912;SDS011;2982;42.684;23.356;2023-08-24T03:53:44;15.82;;;13.88;;
5912;SDS011;2982;42.684;23.356;2023-08-24T03:56:09;13.57;;;12.35;;
5912;SDS011;2982;42.684;23.356;2023-08-24T03:58:35;15.82;;;13.82;;
5912;SDS011;2982;42.684;23.356;2023-08-24T04:01:00;20.27;;;14.32;;
5912;SDS011;2982;42.684;23.356;2023-08-24T04:03:25;14.63;;;13.27;;
5912;SDS011;2982;42.684;23.356;2023-08-24T04:05:51;15.23;;;13.82;;
5912;SDS011;2982;42.684;23.356;2023-08-24T04:08:16;18.35;;;14.52;;
5912;SDS011;2982;42.684;23.356;2023-08-24T04:10:41;19.35;;;14.88;;
5912;SDS011;2982;42.684;23.356;2023-08-24T04:15:34;16.95;;;14.35;;
5912;SDS011;2982;42.684;23.356;2023-08-24T04:18:10;15.98;;;14.35;;
5912;SDS011;2982;42.684;23.356;2023-08-24T04:20:39;15.52;;;14.13;;
5912;SDS011;2982;42.684;23.356;2023-08-24T04:23:05;16.13;;;14.70;;
5912;SDS011;2982;42.684;23.356;2023-08-24T04:25:30;16.13;;;14.30;;
5912;SDS011;2982;42.684;23.356;2023-08-24T04:27:55;19.27;;;15.65;;
5912;SDS011;2982;42.684;23.356;2023-08-24T04:30:21;22.80;;;15.85;;
5912;SDS011;2982;42.684;23.356;2023-08-24T04:32:46;20.35;;;15.73;;
5912;SDS011;2982;42.684;23.356;2023-08-24T04:35:12;21.58;;;15.10;;
5912;SDS011;2982;42.684;23.356;2023-08-24T04:37:38;18.27;;;13.25;;
5912;SDS011;2982;42.684;23.356;2023-08-24T04:40:04;17.10;;;13.38;;
5912;SDS011;2982;42.684;23.356;2023-08-24T04:42:31;20.00;;;15.10;;
5912;SDS011;2982;42.684;23.356;2023-08-24T04:44:58;16.35;;;14.23;;
5912;SDS011;2982;42.684;23.356;2023-08-24T04:47:23;19.70;;;15.13;;
5912;SDS011;2982;42.684;23.356;2023-08-24T04:49:52;19.20;;;15.13;;
5912;SDS011;2982;42.684;23.356;2023-08-24T04:52:18;19.05;;;14.27;;
5912;SDS011;2982;42.684;23.356;2023-08-24T04:54:44;17.92;;;14.90;;
5912;SDS011;2982;42.684;23.356;2023-08-24T04:57:09;16.67;;;14.88;;
5912;SDS011;2982;42.684;23.356;2023-08-24T04:59:36;25.58;;;14.32;;
5912;SDS011;2982;42.684;23.356;2023-08-24T05:02:02;18.67;;;13.57;;
5912;SDS011;2982;42.684;23.356;2023-08-24T05:04:27;15.88;;;14.20;;
5912;SDS011;2982;42.684;23.356;2023-08-24T05:06:53;25.17;;;15.38;;
5912;SDS011;2982;42.684;23.356;2023-08-24T05:09:48;34.15;;;15.77;;
5912;SDS011;2982;42.684;23.356;2023-08-24T05:12:32;20.88;;;14.23;;
5912;SDS011;2982;42.684;23.356;2023-08-24T05:15:17;16.42;;;14.52;;
5912;SDS011;2982;42.684;23.356;2023-08-24T05:17:45;16.25;;;14.45;;
5912;SDS011;2982;42.684;23.356;2023-08-24T05:20:19;17.55;;;15.85;;
5912;SDS011;2982;42.684;23.356;2023-08-24T05:23:34;17.00;;;15.23;;
5912;SDS011;2982;42.684;23.356;2023-08-24T05:26:09;18.73;;;15.50;;
5912;SDS011;2982;42.684;23.356;2023-08-24T06:03:54;19.88;;;16.00;;
5912;SDS011;2982;42.684;23.356;2023-08-24T06:06:28;31.98;;;18.25;;
5912;SDS011;2982;42.684;23.356;2023-08-24T06:09:39;18.23;;;16.10;;
5912;SDS011;2982;42.684;23.356;2023-08-24T06:12:13;19.17;;;16.42;;
5912;SDS011;2982;42.684;23.356;2023-08-24T06:14:39;17.75;;;15.32;;
5912;SDS011;2982;42.684;23.356;2023-08-24T06:17:06;21.40;;;16.55;;
5912;SDS011;2982;42.684;23.356;2023-08-24T06:19:32;22.60;;;15.82;;
5912;SDS011;2982;42.684;23.356;2023-08-24T06:21:57;18.10;;;16.13;;
5912;SDS011;2982;42.684;23.356;2023-08-24T06:24:26;35.55;;;16.42;;
5912;SDS011;2982;42.684;23.356;2023-08-24T06:26:51;16.90;;;15.15;;
5912;SDS011;2982;42.684;23.356;2023-08-24T06:29:16;24.88;;;16.75;;
5912;SDS011;2982;42.684;23.356;2023-08-24T06:31:42;16.25;;;14.55;;
5912;SDS011;2982;42.684;23.356;2023-08-24T06:34:07;17.55;;;15.55;;
5912;SDS011;2982;42.684;23.356;2023-08-24T06:36:33;31.02;;;14.93;;
5912;SDS011;2982;42.684;23.356;2023-08-24T06:38:58;27.33;;;15.52;;
5912;SDS011;2982;42.684;23.356;2023-08-24T06:41:24;17.65;;;15.50;;
5912;SDS011;2982;42.684;23.356;2023-08-24T06:43:51;20.35;;;16.48;;
5912;SDS011;2982;42.684;23.356;2023-08-24T06:46:17;20.48;;;15.25;;
5912;SDS011;2982;42.684;23.356;2023-08-24T06:48:42;18.08;;;16.05;;
5912;SDS011;2982;42.684;23.356;2023-08-24T06:51:14;17.40;;;14.52;;
5912;SDS011;2982;42.684;23.356;2023-08-24T06:53:42;18.10;;;16.38;;
5912;SDS011;2982;42.684;23.356;2023-08-24T06:56:07;22.98;;;15.15;;
5912;SDS011;2982;42.684;23.356;2023-08-24T06:58:33;19.65;;;16.50;;
5912;SDS011;2982;42.684;23.356;2023-08-24T07:00:58;20.40;;;16.13;;
5912;SDS011;2982;42.684;23.356;2023-08-24T07:03:24;17.13;;;15.35;;
5912;SDS011;2982;42.684;23.356;2023-08-24T07:05:50;20.65;;;15.27;;
5912;SDS011;2982;42.684;23.356;2023-08-24T07:08:16;16.70;;;14.98;;
5912;SDS011;2982;42.684;23.356;2023-08-24T07:10:42;16.58;;;14.82;;
5912;SDS011;2982;42.684;23.356;2023-08-24T07:13:08;15.82;;;14.27;;
5912;SDS011;2982;42.684;23.356;2023-08-24T07:15:35;16.30;;;14.40;;
5912;SDS011;2982;42.684;23.356;2023-08-24T07:18:01;16.85;;;14.00;;
5912;SDS011;2982;42.684;23.356;2023-08-24T07:20:27;17.10;;;14.13;;
5912;SDS011;2982;42.684;23.356;2023-08-24T07:22:52;16.63;;;14.88;;
5912;SDS011;2982;42.684;23.356;2023-08-24T07:25:18;15.75;;;14.13;;
5912;SDS011;2982;42.684;23.356;2023-08-24T07:27:43;14.32;;;13.13;;
5912;SDS011;2982;42.684;23.356;2023-08-24T07:30:09;23.70;;;14.27;;
5912;SDS011;2982;42.684;23.356;2023-08-24T07:32:38;13.63;;;12.38;;
5912;SDS011;2982;42.684;23.356;2023-08-24T07:35:04;14.32;;;13.00;;
5912;SDS011;2982;42.684;23.356;2023-08-24T07:37:33;16.20;;;13.23;;
5912;SDS011;2982;42.684;23.356;2023-08-24T07:40:02;14.10;;;12.73;;
5912;SDS011;2982;42.684;23.356;2023-08-24T07:42:27;16.17;;;12.75;;
5912;SDS011;2982;42.684;23.356;2023-08-24T07:44:54;13.80;;;12.43;;
5912;SDS011;2982;42.684;23.356;2023-08-24T07:47:19;13.35;;;12.23;;
5912;SDS011;2982;42.684;23.356;2023-08-24T07:49:46;15.40;;;13.27;;
5912;SDS011;2982;42.684;23.356;2023-08-24T07:52:14;18.08;;;13.60;;
5912;SDS011;2982;42.684;23.356;2023-08-24T07:54:40;18.42;;;13.40;;
5912;SDS011;2982;42.684;23.356;2023-08-24T07:57:05;16.10;;;13.68;;
5912;SDS011;2982;42.684;23.356;2023-08-24T07:59:31;15.90;;;14.25;;
5912;SDS011;2982;42.684;23.356;2023-08-24T08:01:56;16.60;;;14.82;;
5912;SDS011;2982;42.684;23.356;2023-08-24T08:04:22;15.95;;;14.43;;
5912;SDS011;2982;42.684;23.356;2023-08-24T08:06:47;16.13;;;14.60;;
5912;SDS011;2982;42.684;23.356;2023-08-24T08:09:14;16.67;;;14.50;;
5912;SDS011;2982;42.684;23.356;2023-08-24T08:11:43;18.80;;;14.77;;
5912;SDS011;2982;42.684;23.356;2023-08-24T08:14:09;15.85;;;14.35;;
5912;SDS011;2982;42.684;23.356;2023-08-24T08:16:37;17.90;;;13.63;;
5912;SDS011;2982;42.684;23.356;2023-08-24T08:19:05;16.80;;;13.73;;
5912;SDS011;2982;42.684;23.356;2023-08-24T08:21:31;17.20;;;13.43;;
5912;SDS011;2982;42.684;23.356;2023-08-24T08:23:56;24.35;;;12.30;;
5912;SDS011;2982;42.684;23.356;2023-08-24T08:26:22;19.42;;;13.27;;
5912;SDS011;2982;42.684;23.356;2023-08-24T08:28:47;53.95;;;13.20;;
5912;SDS011;2982;42.684;23.356;2023-08-24T08:31:15;14.93;;;12.60;;
5912;SDS011;2982;42.684;23.356;2023-08-24T08:33:43;14.57;;;11.70;;
5912;SDS011;2982;42.684;23.356;2023-08-24T08:36:11;25.00;;;12.27;;
5912;SDS011;2982;42.684;23.356;2023-08-24T08:38:37;13.70;;;11.07;;
5912;SDS011;2982;42.684;23.356;2023-08-24T08:41:03;13.00;;;11.70;;
5912;SDS011;2982;42.684;23.356;2023-08-24T08:43:31;12.73;;;11.52;;
5912;SDS011;2982;42.684;23.356;2023-08-24T08:45:59;13.57;;;11.90;;
5912;SDS011;2982;42.684;23.356;2023-08-24T08:48:25;14.00;;;12.77;;
5912;SDS011;2982;42.684;23.356;2023-08-24T08:50:57;14.15;;;12.38;;
5912;SDS011;2982;42.684;23.356;2023-08-24T08:53:23;14.43;;;13.00;;
5912;SDS011;2982;42.684;23.356;2023-08-24T08:55:50;12.77;;;11.80;;
5912;SDS011;2982;42.684;23.356;2023-08-24T08:58:16;16.10;;;12.45;;
5912;SDS011;2982;42.684;23.356;2023-08-24T09:00:46;12.85;;;11.63;;
5912;SDS011;2982;42.684;23.356;2023-08-24T09:03:14;12.13;;;11.13;;
5912;SDS011;2982;42.684;23.356;2023-08-24T09:05:43;13.43;;;12.23;;
5912;SDS011;2982;42.684;23.356;2023-08-24T09:08:09;12.80;;;11.55;;
5912;SDS011;2982;42.684;23.356;2023-08-24T09:10:36;15.32;;;12.20;;
5912;SDS011;2982;42.684;23.356;2023-08-24T09:13:03;14.82;;;13.43;;
5912;SDS011;2982;42.684;23.356;2023-08-24T09:15:31;13.65;;;12.32;;
5912;SDS011;2982;42.684;23.356;2023-08-24T09:18:03;12.40;;;11.50;;
5912;SDS011;2982;42.684;23.356;2023-08-24T09:20:33;12.98;;;11.75;;
5912;SDS011;2982;42.684;23.356;2023-08-24T09:23:17;13.55;;;11.77;;
5912;SDS011;2982;42.684;23.356;2023-08-24T09:25:47;16.15;;;12.23;;
5912;SDS011;2982;42.684;23.356;2023-08-24T09:28:13;11.75;;;10.82;;
5912;SDS011;2982;42.684;23.356;2023-08-24T09:30:38;13.05;;;12.02;;
5912;SDS011;2982;42.684;23.356;2023-08-24T09:33:04;13.23;;;12.02;;
5912;SDS011;2982;42.684;23.356;2023-08-24T09:35:35;12.40;;;11.40;;
5912;SDS011;2982;42.684;23.356;2023-08-24T09:38:09;13.23;;;12.00;;
5912;SDS011;2982;42.684;23.356;2023-08-24T09:40:52;13.57;;;12.13;;
5912;SDS011;2982;42.684;23.356;2023-08-24T09:43:22;15.40;;;11.90;;
5912;SDS011;2982;42.684;23.356;2023-08-24T09:48:31;13.73;;;11.13;;
5912;SDS011;2982;42.684;23.356;2023-08-24T09:50:56;12.82;;;11.82;;
5912;SDS011;2982;42.684;23.356;2023-08-24T09:53:22;12.65;;;11.63;;
5912;SDS011;2982;42.684;23.356;2023-08-24T09:56:01;12.75;;;11.63;;
5912;SDS011;2982;42.684;23.356;2023-08-24T09:58:39;12.15;;;11.15;;
5912;SDS011;2982;42.684;23.356;2023-08-24T10:01:05;14.68;;;11.93;;
5912;SDS011;2982;42.684;23.356;2023-08-24T10:03:34;11.00;;;10.13;;
5912;SDS011;2982;42.684;23.356;2023-08-24T10:06:15;15.20;;;11.25;;
5912;SDS011;2982;42.684;23.356;2023-08-24T10:08:47;13.35;;;10.70;;
5912;SDS011;2982;42.684;23.356;2023-08-24T10:11:17;13.35;;;12.10;;
5912;SDS011;2982;42.684;23.356;2023-08-24T10:13:58;13.60;;;12.30;;
5912;SDS011;2982;42.684;23.356;2023-08-24T10:16:26;12.93;;;11.50;;
5912;SDS011;2982;42.684;23.356;2023-08-24T10:18:57;17.88;;;10.65;;
5912;SDS011;2982;42.684;23.356;2023-08-24T10:21:24;11.95;;;10.95;;
5912;SDS011;2982;42.684;23.356;2023-08-24T10:24:04;9.40;;;8.80;;
5912;SDS011;2982;42.684;23.356;2023-08-24T10:26:32;11.07;;;9.85;;
5912;SDS011;2982;42.684;23.356;2023-08-24T10:28:58;9.57;;;8.98;;
5912;SDS011;2982;42.684;23.356;2023-08-24T10:31:43;9.50;;;8.90;;
5912;SDS011;2982;42.684;23.356;2023-08-24T10:34:12;10.95;;;10.10;;
5912;SDS011;2982;42.684;23.356;2023-08-24T10:36:42;9.80;;;9.02;;
5912;SDS011;2982;42.684;23.356;2023-08-24T10:39:09;9.75;;;8.82;;
5912;SDS011;2982;42.684;23.356;2023-08-24T10:44:35;11.13;;;9.95;;
5912;SDS011;2982;42.684;23.356;2023-08-24T10:47:20;12.50;;;9.57;;
5912;SDS011;2982;42.684;23.356;2023-08-24T10:52:22;11.38;;;10.32;;
5912;SDS011;2982;42.684;23.356;2023-08-24T10:55:29;10.45;;;9.50;;
5912;SDS011;2982;42.684;23.356;2023-08-24T10:57:58;13.10;;;10.40;;
5912;SDS011;2982;42.684;23.356;2023-08-24T11:00:28;11.70;;;10.32;;
5912;SDS011;2982;42.684;23.356;2023-08-24T11:02:55;10.98;;;9.98;;
5912;SDS011;2982;42.684;23.356;2023-08-24T11:05:22;11.55;;;9.45;;
5912;SDS011;2982;42.684;23.356;2023-08-24T11:07:55;9.85;;;8.73;;
5912;SDS011;2982;42.684;23.356;2023-08-24T11:10:23;11.43;;;10.27;;
5912;SDS011;2982;42.684;23.356;2023-08-24T11:15:49;12.77;;;11.02;;
5912;SDS011;2982;42.684;23.356;2023-08-24T11:18:25;12.27;;;11.07;;
5912;SDS011;2982;42.684;23.356;2023-08-24T11:20:53;10.75;;;9.82;;
5912;SDS011;2982;42.684;23.356;2023-08-24T11:23:21;11.13;;;10.30;;
5912;SDS011;2982;42.684;23.356;2023-08-24T11:25:52;10.93;;;10.10;;
5912;SDS011;2982;42.684;23.356;2023-08-24T11:28:19;11.77;;;10.77;;
5912;SDS011;2982;42.684;23.356;2023-08-24T11:30:48;12.27;;;11.10;;
5912;SDS011;2982;42.684;23.356;2023-08-24T11:33:14;11.00;;;10.18;;
5912;SDS011;2982;42.684;23.356;2023-08-24T11:35:41;11.93;;;11.13;;
5912;SDS011;2982;42.684;23.356;2023-08-24T11:38:41;12.75;;;10.70;;
5912;SDS011;2982;42.684;23.356;2023-08-24T11:41:24;11.98;;;10.93;;
5912;SDS011;2982;42.684;23.356;2023-08-24T11:43:58;12.40;;;11.40;;
5912;SDS011;2982;42.684;23.356;2023-08-24T11:46:25;12.30;;;11.18;;
5912;SDS011;2982;42.684;23.356;2023-08-24T11:48:56;10.10;;;9.40;;
5912;SDS011;2982;42.684;23.356;2023-08-24T11:51:23;18.20;;;10.98;;
5912;SDS011;2982;42.684;23.356;2023-08-24T11:54:11;10.77;;;9.90;;
5912;SDS011;2982;42.684;23.356;2023-08-24T11:56:41;11.68;;;10.88;;
5912;SDS011;2982;42.684;23.356;2023-08-24T11:59:10;12.30;;;11.30;;
5912;SDS011;2982;42.684;23.356;2023-08-24T12:01:38;11.82;;;10.70;;
5912;SDS011;2982;42.684;23.356;2023-08-24T12:04:05;11.57;;;10.45;;
5912;SDS011;2982;42.684;23.356;2023-08-24T12:06:31;11.63;;;10.45;;
5912;SDS011;2982;42.684;23.356;2023-08-24T12:09:01;15.30;;;11.98;;
5912;SDS011;2982;42.684;23.356;2023-08-24T12:11:30;11.38;;;10.35;;
5912;SDS011;2982;42.684;23.356;2023-08-24T12:14:00;11.02;;;9.95;;
5912;SDS011;2982;42.684;23.356;2023-08-24T12:16:26;9.88;;;9.07;;
5912;SDS011;2982;42.684;23.356;2023-08-24T12:21:18;10.10;;;9.40;;
5912;SDS011;2982;42.684;23.356;2023-08-24T12:23:54;9.38;;;8.77;;
5912;SDS011;2982;42.684;23.356;2023-08-24T12:26:24;9.77;;;8.82;;
5912;SDS011;2982;42.684;23.356;2023-08-24T12:28:51;9.93;;;9.10;;
5912;SDS011;2982;42.684;23.356;2023-08-24T12:31:17;9.45;;;8.65;;
5912;SDS011;2982;42.684;23.356;2023-08-24T12:33:45;12.45;;;9.10;;
5912;SDS011;2982;42.684;23.356;2023-08-24T12:36:22;11.80;;;9.25;;
5912;SDS011;2982;42.684;23.356;2023-08-24T12:38:47;13.23;;;9.55;;
5912;SDS011;2982;42.684;23.356;2023-08-24T12:41:21;10.65;;;9.48;;
5912;SDS011;2982;42.684;23.356;2023-08-24T12:43:56;14.68;;;9.13;;
5912;SDS011;2982;42.684;23.356;2023-08-24T12:46:24;9.77;;;9.00;;
5912;SDS011;2982;42.684;23.356;2023-08-24T12:48:50;9.65;;;8.63;;
5912;SDS011;2982;42.684;23.356;2023-08-24T12:51:16;9.88;;;8.88;;
5912;SDS011;2982;42.684;23.356;2023-08-24T12:53:41;11.45;;;9.93;;
5912;SDS011;2982;42.684;23.356;2023-08-24T12:56:07;9.80;;;9.05;;
5912;SDS011;2982;42.684;23.356;2023-08-24T12:58:35;12.45;;;9.23;;
5912;SDS011;2982;42.684;23.356;2023-08-24T13:01:01;10.73;;;9.55;;
5912;SDS011;2982;42.684;23.356;2023-08-24T13:03:29;16.85;;;10.10;;
5912;SDS011;2982;42.684;23.356;2023-08-24T13:05:54;9.63;;;8.85;;
5912;SDS011;2982;42.684;23.356;2023-08-24T13:08:20;10.25;;;9.27;;
5912;SDS011;2982;42.684;23.356;2023-08-24T13:10:45;13.20;;;9.32;;
5912;SDS011;2982;42.684;23.356;2023-08-24T13:13:13;9.77;;;9.05;;
5912;SDS011;2982;42.684;23.356;2023-08-24T13:15:40;12.70;;;8.65;;
5912;SDS011;2982;42.684;23.356;2023-08-24T13:18:06;12.13;;;10.93;;
5912;SDS011;2982;42.684;23.356;2023-08-24T13:20:37;18.05;;;10.82;;
5912;SDS011;2982;42.684;23.356;2023-08-24T13:23:08;15.43;;;10.88;;
5912;SDS011;2982;42.684;23.356;2023-08-24T13:28:23;13.85;;;9.15;;
5912;SDS011;2982;42.684;23.356;2023-08-24T13:30:49;18.35;;;9.93;;
5912;SDS011;2982;42.684;23.356;2023-08-24T13:33:14;15.23;;;10.10;;
5912;SDS011;2982;42.684;23.356;2023-08-24T13:35:41;14.88;;;10.15;;
5912;SDS011;2982;42.684;23.356;2023-08-24T13:38:10;11.45;;;9.82;;
5912;SDS011;2982;42.684;23.356;2023-08-24T13:40:39;12.95;;;9.90;;
5912;SDS011;2982;42.684;23.356;2023-08-24T13:43:06;10.77;;;9.45;;
5912;SDS011;2982;42.684;23.356;2023-08-24T13:45:32;35.83;;;11.77;;
5912;SDS011;2982;42.684;23.356;2023-08-24T13:48:03;19.17;;;10.32;;
5912;SDS011;2982;42.684;23.356;2023-08-24T13:50:29;11.07;;;9.95;;
5912;SDS011;2982;42.684;23.356;2023-08-24T13:52:58;10.30;;;9.48;;
5912;SDS011;2982;42.684;23.356;2023-08-24T13:55:23;11.52;;;9.93;;
5912;SDS011;2982;42.684;23.356;2023-08-24T13:57:49;12.93;;;9.57;;
5912;SDS011;2982;42.684;23.356;2023-08-24T14:00:14;12.40;;;9.15;;
5912;SDS011;2982;42.684;23.356;2023-08-24T14:02:46;10.30;;;9.40;;
5912;SDS011;2982;42.684;23.356;2023-08-24T14:05:12;10.95;;;9.85;;
5912;SDS011;2982;42.684;23.356;2023-08-24T14:07:38;11.13;;;9.98;;
5912;SDS011;2982;42.684;23.356;2023-08-24T14:10:03;12.98;;;9.77;;
5912;SDS011;2982;42.684;23.356;2023-08-24T14:12:31;11.50;;;10.38;;
5912;SDS011;2982;42.684;23.356;2023-08-24T14:14:57;10.73;;;9.60;;
5912;SDS011;2982;42.684;23.356;2023-08-24T14:17:29;10.95;;;10.00;;
5912;SDS011;2982;42.684;23.356;2023-08-24T14:19:54;14.05;;;10.55;;
5912;SDS011;2982;42.684;23.356;2023-08-24T14:22:20;11.23;;;10.25;;
5912;SDS011;2982;42.684;23.356;2023-08-24T14:24:45;10.88;;;10.05;;
5912;SDS011;2982;42.684;23.356;2023-08-24T14:27:19;11.18;;;9.82;;
5912;SDS011;2982;42.684;23.356;2023-08-24T14:30:05;10.10;;;9.20;;
5912;SDS011;2982;42.684;23.356;2023-08-24T14:32:38;11.07;;;10.05;;
5912;SDS011;2982;42.684;23.356;2023-08-24T14:35:22;11.30;;;10.30;;
5912;SDS011;2982;42.684;23.356;2023-08-24T14:38:17;13.05;;;10.88;;
5912;SDS011;2982;42.684;23.356;2023-08-24T14:40:42;13.48;;;10.05;;
5912;SDS011;2982;42.684;23.356;2023-08-24T14:43:08;11.73;;;10.57;;
5912;SDS011;2982;42.684;23.356;2023-08-24T14:45:33;10.38;;;9.55;;
5912;SDS011;2982;42.684;23.356;2023-08-24T14:47:58;9.95;;;9.25;;
5912;SDS011;2982;42.684;23.356;2023-08-24T14:50:24;10.63;;;9.73;;
5912;SDS011;2982;42.684;23.356;2023-08-24T14:52:49;11.70;;;10.60;;
5912;SDS011;2982;42.684;23.356;2023-08-24T14:55:14;11.70;;;10.45;;
5912;SDS011;2982;42.684;23.356;2023-08-24T14:57:40;10.80;;;9.88;;
5912;SDS011;2982;42.684;23.356;2023-08-24T15:00:05;16.55;;;9.68;;
5912;SDS011;2982;42.684;23.356;2023-08-24T15:02:31;11.13;;;10.13;;
5912;SDS011;2982;42.684;23.356;2023-08-24T15:04:57;11.05;;;9.98;;
5912;SDS011;2982;42.684;23.356;2023-08-24T15:07:22;11.57;;;9.07;;
5912;SDS011;2982;42.684;23.356;2023-08-24T15:09:48;10.73;;;9.75;;
5912;SDS011;2982;42.684;23.356;2023-08-24T15:12:21;10.50;;;9.68;;
5912;SDS011;2982;42.684;23.356;2023-08-24T15:14:59;10.65;;;8.68;;
5912;SDS011;2982;42.684;23.356;2023-08-24T15:17:25;9.80;;;9.00;;
5912;SDS011;2982;42.684;23.356;2023-08-24T15:19:54;10.43;;;9.40;;
5912;SDS011;2982;42.684;23.356;2023-08-24T15:22:21;9.23;;;8.52;;
5912;SDS011;2982;42.684;23.356;2023-08-24T15:24:47;9.05;;;8.45;;
5912;SDS011;2982;42.684;23.356;2023-08-24T15:27:13;9.15;;;8.43;;
5912;SDS011;2982;42.684;23.356;2023-08-24T15:29:40;9.57;;;8.85;;
5912;SDS011;2982;42.684;23.356;2023-08-24T15:32:07;9.07;;;8.48;;
5912;SDS011;2982;42.684;23.356;2023-08-24T15:34:34;9.05;;;8.38;;
5912;SDS011;2982;42.684;23.356;2023-08-24T15:36:59;10.05;;;9.23;;
5912;SDS011;2982;42.684;23.356;2023-08-24T15:39:25;11.35;;;9.40;;
5912;SDS011;2982;42.684;23.356;2023-08-24T15:41:50;11.07;;;8.68;;
5912;SDS011;2982;42.684;23.356;2023-08-24T15:44:16;9.90;;;9.32;;